sensor_id;sensor_type;location;lat;lon;timestamp;pressure;altitude;pressure_sealevel;temperature;humidity
79791;BME280;69278;52.220;5.172;2023-09-19T00:00:56;100716.00;;;16.01;76.64
79791;BME280;69278;52.220;5.172;2023-09-19T00:03:24;100715.34;;;15.99;76.80
79791;BME280;69278;52.220;5.172;2023-09-19T00:05:51;100727.97;;;15.97;76.98
79791;BME280;69278;52.220;5.172;2023-09-19T00:08:18;100726.16;;;15.98;76.80
79791;BME280;69278;52.220;5.172;2023-09-19T00:10:49;100728.81;;;15.98;77.20
79791;BME280;69278;52.220;5.172;2023-09-19T00:13:16;100729.66;;;15.98;77.35
79791;BME280;69278;52.220;5.172;2023-09-19T00:15:45;100733.47;;;15.96;76.86
79791;BME280;69278;52.220;5.172;2023-09-19T00:18:15;100731.81;;;15.94;76.92
79791;BME280;69278;52.220;5.172;2023-09-19T00:20:43;100731.50;;;15.89;77.01
79791;BME280;69278;52.220;5.172;2023-09-19T00:23:13;100732.63;;;15.95;77.03
79791;BME280;69278;52.220;5.172;2023-09-19T00:25:40;100741.59;;;15.94;77.00
79791;BME280;69278;52.220;5.172;2023-09-19T00:28:08;100746.91;;;15.94;77.17
79791;BME280;69278;52.220;5.172;2023-09-19T00:30:36;100746.56;;;15.97;77.36
79791;BME280;69278;52.220;5.172;2023-09-19T00:33:04;100744.94;;;15.96;77.58
79791;BME280;69278;52.220;5.172;2023-09-19T00:35:32;100751.41;;;15.93;77.35
79791;BME280;69278;52.220;5.172;2023-09-19T00:37:59;100751.41;;;15.93;77.48
79791;BME280;69278;52.220;5.172;2023-09-19T00:40:26;100745.09;;;15.94;78.00
79791;BME280;69278;52.220;5.172;2023-09-19T00:42:57;100749.75;;;15.92;77.78
79791;BME280;69278;52.220;5.172;2023-09-19T00:45:25;100743.94;;;15.89;77.64
79791;BME280;69278;52.220;5.172;2023-09-19T00:47:52;100749.09;;;15.90;77.75
79791;BME280;69278;52.220;5.172;2023-09-19T00:50:22;100762.19;;;15.92;77.96
79791;BME280;69278;52.220;5.172;2023-09-19T00:52:50;100761.53;;;15.90;78.06
79791;BME280;69278;52.220;5.172;2023-09-19T00:55:19;100770.50;;;15.89;78.20
79791;BME280;69278;52.220;5.172;2023-09-19T00:57:46;100768.03;;;15.87;78.22
79791;BME280;69278;52.220;5.172;2023-09-19T01:00:14;100768.03;;;15.87;77.95
79791;BME280;69278;52.220;5.172;2023-09-19T01:02:42;100764.72;;;15.85;77.79
79791;BME280;69278;52.220;5.172;2023-09-19T01:05:10;100771.19;;;15.83;77.56
79791;BME280;69278;52.220;5.172;2023-09-19T01:07:36;100771.19;;;15.83;78.05
79791;BME280;69278;52.220;5.172;2023-09-19T01:10:12;100766.88;;;15.82;78.11
79791;BME280;69278;52.220;5.172;2023-09-19T01:15:28;100768.53;;;15.83;78.50
79791;BME280;69278;52.220;5.172;2023-09-19T01:20:57;100724.84;;;15.55;77.52
79791;BME280;69278;52.220;5.172;2023-09-19T01:29:26;100729.66;;;15.51;76.96
79791;BME280;69278;52.220;5.172;2023-09-19T01:32:03;100767.41;;;15.77;77.06
79791;BME280;69278;52.220;5.172;2023-09-19T01:34:53;100766.22;;;15.80;76.72
79791;BME280;69278;52.220;5.172;2023-09-19T01:37:23;100766.22;;;15.80;77.27
79791;BME280;69278;52.220;5.172;2023-09-19T01:39:56;100776.84;;;15.80;76.89
79791;BME280;69278;52.220;5.172;2023-09-19T01:42:31;100741.91;;;15.60;76.99
79791;BME280;69278;52.220;5.172;2023-09-19T01:45:13;100779.69;;;15.78;77.43
79791;BME280;69278;52.220;5.172;2023-09-19T01:47:46;100781.69;;;15.76;76.42
79791;BME280;69278;52.220;5.172;2023-09-19T01:50:20;100783.50;;;15.76;76.64
79791;BME280;69278;52.220;5.172;2023-09-19T01:55:44;100772.06;;;15.67;76.47
79791;BME280;69278;52.220;5.172;2023-09-19T02:00:49;100782.03;;;15.73;76.66
79791;BME280;69278;52.220;5.172;2023-09-19T02:03:21;100771.59;;;15.72;76.37
79791;BME280;69278;52.220;5.172;2023-09-19T02:05:51;100759.97;;;15.65;76.53
79791;BME280;69278;52.220;5.172;2023-09-19T02:08:21;100770.09;;;15.69;76.30
79791;BME280;69278;52.220;5.172;2023-09-19T02:10:50;100767.44;;;15.69;76.12
79791;BME280;69278;52.220;5.172;2023-09-19T02:13:17;100753.84;;;15.64;75.26
79791;BME280;69278;52.220;5.172;2023-09-19T02:15:46;100766.44;;;15.70;75.61
79791;BME280;69278;52.220;5.172;2023-09-19T02:18:13;100774.25;;;15.72;75.06
79791;BME280;69278;52.220;5.172;2023-09-19T02:20:40;100774.56;;;15.69;75.28
79791;BME280;69278;52.220;5.172;2023-09-19T02:23:08;100772.91;;;15.68;75.02
79791;BME280;69278;52.220;5.172;2023-09-19T02:25:35;100766.75;;;15.67;75.11
79791;BME280;69278;52.220;5.172;2023-09-19T02:28:01;100773.25;;;15.65;75.20
79791;BME280;69278;52.220;5.172;2023-09-19T02:30:29;100784.19;;;15.70;75.18
79791;BME280;69278;52.220;5.172;2023-09-19T02:32:56;100781.88;;;15.67;75.22
79791;BME280;69278;52.220;5.172;2023-09-19T02:35:23;100776.06;;;15.63;74.50
79791;BME280;69278;52.220;5.172;2023-09-19T02:37:50;100786.50;;;15.65;75.18
79791;BME280;69278;52.220;5.172;2023-09-19T02:40:16;100785.84;;;15.63;75.20
79791;BME280;69278;52.220;5.172;2023-09-19T02:42:46;100787.53;;;15.64;74.82
79791;BME280;69278;52.220;5.172;2023-09-19T02:45:16;100761.38;;;15.45;75.00
79791;BME280;69278;52.220;5.172;2023-09-19T02:47:44;100785.72;;;15.64;75.09
79791;BME280;69278;52.220;5.172;2023-09-19T02:50:11;100791.16;;;15.63;75.31
79791;BME280;69278;52.220;5.172;2023-09-19T02:52:44;100796.81;;;15.68;75.59
79791;BME280;69278;52.220;5.172;2023-09-19T02:55:12;100801.13;;;15.69;75.41
79791;BME280;69278;52.220;5.172;2023-09-19T02:57:40;100798.63;;;15.67;75.52
79791;BME280;69278;52.220;5.172;2023-09-19T03:00:10;100794.31;;;15.66;75.52
79791;BME280;69278;52.220;5.172;2023-09-19T03:02:36;100766.31;;;15.56;75.71
79791;BME280;69278;52.220;5.172;2023-09-19T03:05:05;100785.84;;;15.63;75.45
79791;BME280;69278;52.220;5.172;2023-09-19T03:07:32;100784.22;;;15.62;75.85
79791;BME280;69278;52.220;5.172;2023-09-19T03:09:58;100777.56;;;15.58;75.57
79791;BME280;69278;52.220;5.172;2023-09-19T03:12:27;100783.06;;;15.56;75.33
79791;BME280;69278;52.220;5.172;2023-09-19T03:14:54;100772.44;;;15.56;75.53
79791;BME280;69278;52.220;5.172;2023-09-19T03:17:20;100782.09;;;15.57;75.62
79791;BME280;69278;52.220;5.172;2023-09-19T03:19:47;100778.25;;;15.60;75.78
79791;BME280;69278;52.220;5.172;2023-09-19T03:22:14;100775.75;;;15.58;75.02
79791;BME280;69278;52.220;5.172;2023-09-19T03:24:41;100795.81;;;15.61;75.27
79791;BME280;69278;52.220;5.172;2023-09-19T03:27:10;100782.88;;;15.58;74.93
79791;BME280;69278;52.220;5.172;2023-09-19T03:29:36;100779.56;;;15.56;74.77
79791;BME280;69278;52.220;5.172;2023-09-19T03:32:03;100777.44;;;15.59;74.75
79791;BME280;69278;52.220;5.172;2023-09-19T03:34:30;100777.56;;;15.58;75.03
79791;BME280;69278;52.220;5.172;2023-09-19T03:36:56;100771.63;;;15.56;74.99
79791;BME280;69278;52.220;5.172;2023-09-19T03:39:23;100758.69;;;15.53;75.59
79791;BME280;69278;52.220;5.172;2023-09-19T03:41:49;100766.31;;;15.56;75.46
79791;BME280;69278;52.220;5.172;2023-09-19T03:44:16;100769.28;;;15.53;75.48
79791;BME280;69278;52.220;5.172;2023-09-19T03:46:42;100776.44;;;15.52;75.52
79791;BME280;69278;52.220;5.172;2023-09-19T03:49:09;100784.41;;;15.52;75.56
79791;BME280;69278;52.220;5.172;2023-09-19T03:51:36;100774.59;;;15.53;75.52
79791;BME280;69278;52.220;5.172;2023-09-19T03:54:04;100766.50;;;15.46;75.20
79791;BME280;69278;52.220;5.172;2023-09-19T03:56:30;100791.22;;;15.47;75.52
79791;BME280;69278;52.220;5.172;2023-09-19T03:58:57;100782.59;;;15.45;75.42
79791;BME280;69278;52.220;5.172;2023-09-19T04:01:24;100797.00;;;15.50;75.38
79791;BME280;69278;52.220;5.172;2023-09-19T04:03:50;100792.88;;;15.48;75.20
79791;BME280;69278;52.220;5.172;2023-09-19T04:06:19;100798.34;;;15.46;75.29
79791;BME280;69278;52.220;5.172;2023-09-19T04:08:46;100798.53;;;15.45;75.25
79791;BME280;69278;52.220;5.172;2023-09-19T04:11:14;100800.16;;;15.46;75.63
79791;BME280;69278;52.220;5.172;2023-09-19T04:13:40;100806.50;;;15.45;75.40
79791;BME280;69278;52.220;5.172;2023-09-19T04:16:07;100806.16;;;15.48;75.34
79791;BME280;69278;52.220;5.172;2023-09-19T04:18:34;100817.75;;;15.47;75.04
79791;BME280;69278;52.220;5.172;2023-09-19T04:21:04;100810.59;;;15.39;75.07
79791;BME280;69278;52.220;5.172;2023-09-19T04:23:32;100823.69;;;15.41;75.03
79791;BME280;69278;52.220;5.172;2023-09-19T04:25:59;100791.03;;;15.24;75.09
79791;BME280;69278;52.220;5.172;2023-09-19T04:28:26;100812.28;;;15.40;75.35
79791;BME280;69278;52.220;5.172;2023-09-19T04:30:54;100820.06;;;15.42;75.86
79791;BME280;69278;52.220;5.172;2023-09-19T04:33:21;100835.69;;;15.45;75.15
79791;BME280;69278;52.220;5.172;2023-09-19T04:35:50;100836.16;;;15.40;75.56
79791;BME280;69278;52.220;5.172;2023-09-19T04:38:20;100833.00;;;15.37;75.53
79791;BME280;69278;52.220;5.172;2023-09-19T04:40:47;100830.53;;;15.35;75.41
79791;BME280;69278;52.220;5.172;2023-09-19T04:43:13;100835.97;;;15.34;75.52
79791;BME280;69278;52.220;5.172;2023-09-19T04:45:41;100833.31;;;15.34;75.63
79791;BME280;69278;52.220;5.172;2023-09-19T04:48:08;100829.03;;;15.33;75.50
79791;BME280;69278;52.220;5.172;2023-09-19T04:50:38;100820.75;;;15.27;75.50
79791;BME280;69278;52.220;5.172;2023-09-19T04:53:05;100821.41;;;15.29;75.70
79791;BME280;69278;52.220;5.172;2023-09-19T04:55:31;100821.41;;;15.29;75.52
79791;BME280;69278;52.220;5.172;2023-09-19T04:57:59;100817.56;;;15.24;75.50
79791;BME280;69278;52.220;5.172;2023-09-19T05:00:25;100823.06;;;15.22;75.64
79791;BME280;69278;52.220;5.172;2023-09-19T05:02:55;100838.31;;;15.20;75.30
79791;BME280;69278;52.220;5.172;2023-09-19T05:05:25;100834.84;;;15.20;75.78
79791;BME280;69278;52.220;5.172;2023-09-19T05:07:53;100828.69;;;15.19;75.49
79791;BME280;69278;52.220;5.172;2023-09-19T05:10:20;100839.31;;;15.19;75.50
79791;BME280;69278;52.220;5.172;2023-09-19T05:12:48;100834.16;;;15.18;75.48
79791;BME280;69278;52.220;5.172;2023-09-19T05:15:17;100819.56;;;15.14;75.66
79791;BME280;69278;52.220;5.172;2023-09-19T05:17:51;100831.66;;;15.16;75.83
79791;BME280;69278;52.220;5.172;2023-09-19T05:20:22;100825.72;;;15.06;75.69
79791;BME280;69278;52.220;5.172;2023-09-19T05:23:05;100818.75;;;15.05;75.72
79791;BME280;69278;52.220;5.172;2023-09-19T05:25:37;100846.25;;;15.12;76.31
79791;BME280;69278;52.220;5.172;2023-09-19T05:28:08;100827.03;;;15.10;75.78
79791;BME280;69278;52.220;5.172;2023-09-19T05:30:35;100833.00;;;15.12;76.01
79791;BME280;69278;52.220;5.172;2023-09-19T05:33:02;100835.66;;;15.12;76.33
79791;BME280;69278;52.220;5.172;2023-09-19T05:35:31;100836.63;;;15.11;76.25
79791;BME280;69278;52.220;5.172;2023-09-19T05:37:58;100831.34;;;15.11;76.14
79791;BME280;69278;52.220;5.172;2023-09-19T05:40:25;100833.19;;;15.11;76.60
79791;BME280;69278;52.220;5.172;2023-09-19T05:42:52;100838.13;;;15.14;76.48
79791;BME280;69278;52.220;5.172;2023-09-19T05:45:18;100835.47;;;15.38;77.63
79791;BME280;69278;52.220;5.172;2023-09-19T05:47:49;100854.38;;;15.75;77.65
79791;BME280;69278;52.220;5.172;2023-09-19T05:50:17;100851.66;;;16.00;76.78
79791;BME280;69278;52.220;5.172;2023-09-19T05:52:51;100735.66;;;15.45;76.08
79791;BME280;69278;52.220;5.172;2023-09-19T05:55:19;100852.72;;;16.29;76.17
79791;BME280;69278;52.220;5.172;2023-09-19T05:57:51;100853.16;;;16.41;74.83
79791;BME280;69278;52.220;5.172;2023-09-19T06:00:19;100848.78;;;16.48;74.86
79791;BME280;69278;52.220;5.172;2023-09-19T06:02:50;100815.63;;;16.36;74.42
79791;BME280;69278;52.220;5.172;2023-09-19T06:05:19;100855.19;;;16.70;74.28
79791;BME280;69278;52.220;5.172;2023-09-19T06:07:46;100864.75;;;16.79;74.26
79791;BME280;69278;52.220;5.172;2023-09-19T06:10:13;100861.94;;;16.80;73.18
79791;BME280;69278;52.220;5.172;2023-09-19T06:12:44;100869.38;;;16.85;73.92
79791;BME280;69278;52.220;5.172;2023-09-19T06:15:13;100860.88;;;16.89;73.21
79791;BME280;69278;52.220;5.172;2023-09-19T06:17:45;100875.13;;;16.96;73.19
79791;BME280;69278;52.220;5.172;2023-09-19T06:20:12;100873.59;;;17.02;73.27
79791;BME280;69278;52.220;5.172;2023-09-19T06:22:44;100863.09;;;17.00;72.25
79791;BME280;69278;52.220;5.172;2023-09-19T06:25:13;100869.75;;;17.04;72.48
79791;BME280;69278;52.220;5.172;2023-09-19T06:27:42;100861.59;;;17.06;71.88
79791;BME280;69278;52.220;5.172;2023-09-19T06:30:10;100851.88;;;17.13;72.49
79791;BME280;69278;52.220;5.172;2023-09-19T06:32:41;100857.69;;;17.16;72.75
79791;BME280;69278;52.220;5.172;2023-09-19T06:35:12;100842.94;;;17.06;72.36
79791;BME280;69278;52.220;5.172;2023-09-19T06:37:39;100863.25;;;17.07;72.03
79791;BME280;69278;52.220;5.172;2023-09-19T06:40:14;100855.97;;;17.01;72.77
79791;BME280;69278;52.220;5.172;2023-09-19T06:42:41;100862.66;;;16.97;72.43
79791;BME280;69278;52.220;5.172;2023-09-19T06:45:08;100857.28;;;17.05;73.08
79791;BME280;69278;52.220;5.172;2023-09-19T06:47:37;100849.94;;;17.07;72.61
79791;BME280;69278;52.220;5.172;2023-09-19T06:50:04;100854.84;;;17.18;72.96
79791;BME280;69278;52.220;5.172;2023-09-19T06:52:32;100853.50;;;17.22;72.74
79791;BME280;69278;52.220;5.172;2023-09-19T06:54:59;100856.66;;;17.17;72.40
79791;BME280;69278;52.220;5.172;2023-09-19T06:57:26;100858.75;;;17.07;72.06
79791;BME280;69278;52.220;5.172;2023-09-19T06:59:52;100861.53;;;16.91;72.52
79791;BME280;69278;52.220;5.172;2023-09-19T07:02:19;100870.16;;;16.71;73.02
79791;BME280;69278;52.220;5.172;2023-09-19T07:04:46;100865.06;;;16.53;73.59
79791;BME280;69278;52.220;5.172;2023-09-19T07:07:12;100860.34;;;16.32;74.21
79791;BME280;69278;52.220;5.172;2023-09-19T07:09:40;100870.81;;;16.26;74.66
79791;BME280;69278;52.220;5.172;2023-09-19T07:12:08;100868.53;;;16.15;75.01
79791;BME280;69278;52.220;5.172;2023-09-19T07:14:34;100875.53;;;16.08;75.46
79791;BME280;69278;52.220;5.172;2023-09-19T07:17:01;100883.50;;;16.08;75.65
79791;BME280;69278;52.220;5.172;2023-09-19T07:19:28;100882.16;;;16.04;75.89
79791;BME280;69278;52.220;5.172;2023-09-19T07:21:55;100855.53;;;15.81;76.18
79791;BME280;69278;52.220;5.172;2023-09-19T07:24:21;100884.56;;;15.90;76.50
79791;BME280;69278;52.220;5.172;2023-09-19T07:26:50;100900.44;;;15.99;76.49
79791;BME280;69278;52.220;5.172;2023-09-19T07:29:16;100897.78;;;15.99;76.36
79791;BME280;69278;52.220;5.172;2023-09-19T07:31:43;100883.06;;;15.96;76.61
79791;BME280;69278;52.220;5.172;2023-09-19T07:34:10;100907.25;;;16.01;76.49
79791;BME280;69278;52.220;5.172;2023-09-19T07:36:37;100890.31;;;16.02;76.30
79791;BME280;69278;52.220;5.172;2023-09-19T07:39:04;100892.81;;;16.04;76.43
79791;BME280;69278;52.220;5.172;2023-09-19T07:41:48;100880.69;;;16.01;76.34
79791;BME280;69278;52.220;5.172;2023-09-19T07:44:16;100873.94;;;15.90;76.43
79791;BME280;69278;52.220;5.172;2023-09-19T07:46:43;100897.78;;;16.07;76.56
79791;BME280;69278;52.220;5.172;2023-09-19T07:49:10;100903.28;;;16.05;76.52
79791;BME280;69278;52.220;5.172;2023-09-19T07:51:37;100903.94;;;16.07;76.59
79791;BME280;69278;52.220;5.172;2023-09-19T07:54:05;100898.78;;;16.06;76.29
79791;BME280;69278;52.220;5.172;2023-09-19T07:56:32;100886.56;;;15.88;76.53
79791;BME280;69278;52.220;5.172;2023-09-19T07:58:58;100913.06;;;16.13;76.58
79791;BME280;69278;52.220;5.172;2023-09-19T08:01:25;100910.03;;;16.16;76.50
79791;BME280;69278;52.220;5.172;2023-09-19T08:03:53;100907.69;;;16.21;76.77
79791;BME280;69278;52.220;5.172;2023-09-19T08:06:20;100900.81;;;16.42;77.03
79791;BME280;69278;52.220;5.172;2023-09-19T08:08:47;100908.56;;;16.60;76.20
79791;BME280;69278;52.220;5.172;2023-09-19T08:11:15;100905.19;;;16.74;75.89
79791;BME280;69278;52.220;5.172;2023-09-19T08:13:47;100872.16;;;16.69;75.22
79791;BME280;69278;52.220;5.172;2023-09-19T08:16:16;100884.63;;;16.91;75.10
79791;BME280;69278;52.220;5.172;2023-09-19T08:18:47;100887.97;;;16.93;74.75
79791;BME280;69278;52.220;5.172;2023-09-19T08:21:14;100883.44;;;16.93;74.58
79791;BME280;69278;52.220;5.172;2023-09-19T08:23:42;100903.16;;;17.07;74.65
79791;BME280;69278;52.220;5.172;2023-09-19T08:26:09;100893.47;;;17.14;74.61
79791;BME280;69278;52.220;5.172;2023-09-19T08:28:36;100896.06;;;17.22;74.54
79791;BME280;69278;52.220;5.172;2023-09-19T08:31:04;100893.41;;;17.22;73.58
79791;BME280;69278;52.220;5.172;2023-09-19T08:33:36;100871.28;;;17.21;73.84
79791;BME280;69278;52.220;5.172;2023-09-19T08:36:04;100868.91;;;17.27;73.67
79791;BME280;69278;52.220;5.172;2023-09-19T08:38:35;100877.00;;;17.33;73.72
79791;BME280;69278;52.220;5.172;2023-09-19T08:41:05;100871.88;;;17.32;73.58
79791;BME280;69278;52.220;5.172;2023-09-19T08:43:33;100878.94;;;17.39;73.60
79791;BME280;69278;52.220;5.172;2023-09-19T08:46:10;100845.97;;;17.25;73.45
79791;BME280;69278;52.220;5.172;2023-09-19T08:48:44;100869.97;;;17.40;73.22
79791;BME280;69278;52.220;5.172;2023-09-19T08:51:26;100878.88;;;17.47;73.23
79791;BME280;69278;52.220;5.172;2023-09-19T08:54:06;100875.88;;;17.50;72.86
79791;BME280;69278;52.220;5.172;2023-09-19T08:56:33;100880.34;;;17.50;72.58
79791;BME280;69278;52.220;5.172;2023-09-19T08:59:02;100885.41;;;17.45;71.92
79791;BME280;69278;52.220;5.172;2023-09-19T09:01:31;100898.13;;;17.57;71.94
79791;BME280;69278;52.220;5.172;2023-09-19T09:03:58;100896.22;;;17.66;72.89
79791;BME280;69278;52.220;5.172;2023-09-19T09:06:26;100880.34;;;17.72;72.75
79791;BME280;69278;52.220;5.172;2023-09-19T09:08:55;100883.59;;;17.82;72.04
79791;BME280;69278;52.220;5.172;2023-09-19T09:11:22;100881.94;;;17.96;71.38
79791;BME280;69278;52.220;5.172;2023-09-19T09:13:52;100876.69;;;18.03;71.55
79791;BME280;69278;52.220;5.172;2023-09-19T09:16:18;100845.47;;;17.82;70.49
79791;BME280;69278;52.220;5.172;2023-09-19T09:18:46;100878.00;;;18.07;71.39
79791;BME280;69278;52.220;5.172;2023-09-19T09:21:24;100881.09;;;18.25;70.54
79791;BME280;69278;52.220;5.172;2023-09-19T09:23:51;100867.78;;;18.25;69.38
79791;BME280;69278;52.220;5.172;2023-09-19T09:26:41;100869.72;;;18.31;69.86
79791;BME280;69278;52.220;5.172;2023-09-19T09:29:09;100873.66;;;18.35;69.38
79791;BME280;69278;52.220;5.172;2023-09-19T09:31:35;100868.75;;;18.38;70.21
79791;BME280;69278;52.220;5.172;2023-09-19T09:34:03;100870.34;;;18.47;69.99
79791;BME280;69278;52.220;5.172;2023-09-19T09:36:39;100864.25;;;18.53;69.60
79791;BME280;69278;52.220;5.172;2023-09-19T09:39:08;100844.59;;;18.40;70.24
79791;BME280;69278;52.220;5.172;2023-09-19T09:41:51;100867.75;;;18.54;68.64
79791;BME280;69278;52.220;5.172;2023-09-19T09:44:18;100866.38;;;18.58;69.55
79791;BME280;69278;52.220;5.172;2023-09-19T09:46:47;100870.13;;;18.64;69.39
79791;BME280;69278;52.220;5.172;2023-09-19T09:49:25;100865.44;;;18.66;68.47
79791;BME280;69278;52.220;5.172;2023-09-19T09:52:03;100843.41;;;18.57;68.24
79791;BME280;69278;52.220;5.172;2023-09-19T09:55:00;100865.75;;;18.77;68.89
79791;BME280;69278;52.220;5.172;2023-09-19T09:57:28;100840.78;;;18.64;68.58
79791;BME280;69278;52.220;5.172;2023-09-19T09:59:58;100824.25;;;18.53;66.64
79791;BME280;69278;52.220;5.172;2023-09-19T10:02:42;100861.03;;;18.58;67.19
79791;BME280;69278;52.220;5.172;2023-09-19T10:05:18;100868.13;;;18.51;67.91
79791;BME280;69278;52.220;5.172;2023-09-19T10:07:55;100875.56;;;18.41;68.05
79791;BME280;69278;52.220;5.172;2023-09-19T10:10:36;100869.31;;;18.48;68.25
79791;BME280;69278;52.220;5.172;2023-09-19T10:13:13;100845.03;;;18.43;67.79
79791;BME280;69278;52.220;5.172;2023-09-19T10:15:43;100854.34;;;18.47;66.99
79791;BME280;69278;52.220;5.172;2023-09-19T10:18:22;100839.69;;;18.43;67.38
79791;BME280;69278;52.220;5.172;2023-09-19T10:20:49;100844.53;;;18.48;67.55
79791;BME280;69278;52.220;5.172;2023-09-19T10:23:18;100840.19;;;18.47;67.43
79791;BME280;69278;52.220;5.172;2023-09-19T10:25:53;100838.22;;;18.55;67.60
79791;BME280;69278;52.220;5.172;2023-09-19T10:28:21;100822.69;;;18.59;66.98
79791;BME280;69278;52.220;5.172;2023-09-19T10:30:52;100827.91;;;18.67;66.73
79791;BME280;69278;52.220;5.172;2023-09-19T10:33:21;100829.44;;;18.76;67.43
79791;BME280;69278;52.220;5.172;2023-09-19T10:35:50;100822.59;;;18.88;67.00
79791;BME280;69278;52.220;5.172;2023-09-19T10:38:19;100823.84;;;18.92;66.57
79791;BME280;69278;52.220;5.172;2023-09-19T10:40:52;100821.63;;;18.96;66.59
79791;BME280;69278;52.220;5.172;2023-09-19T10:43:20;100820.81;;;18.95;66.01
79791;BME280;69278;52.220;5.172;2023-09-19T10:45:49;100808.81;;;19.06;66.33
79791;BME280;69278;52.220;5.172;2023-09-19T10:48:16;100805.56;;;19.10;66.43
79791;BME280;69278;52.220;5.172;2023-09-19T10:50:51;100809.13;;;19.24;65.56
79791;BME280;69278;52.220;5.172;2023-09-19T10:53:21;100806.97;;;19.34;65.35
79791;BME280;69278;52.220;5.172;2023-09-19T10:55:57;100781.03;;;19.28;64.25
79791;BME280;69278;52.220;5.172;2023-09-19T10:58:27;100801.69;;;19.41;64.36
79791;BME280;69278;52.220;5.172;2023-09-19T11:00:57;100755.50;;;19.19;64.47
79791;BME280;69278;52.220;5.172;2023-09-19T11:03:33;100807.28;;;19.46;64.22
79791;BME280;69278;52.220;5.172;2023-09-19T11:06:05;100767.88;;;19.27;64.25
79791;BME280;69278;52.220;5.172;2023-09-19T11:08:57;100747.47;;;19.19;64.07
79791;BME280;69278;52.220;5.172;2023-09-19T11:11:48;100785.31;;;19.50;64.24
79791;BME280;69278;52.220;5.172;2023-09-19T11:30:45;100765.03;;;19.56;63.96
79791;BME280;69278;52.220;5.172;2023-09-19T11:33:16;100784.59;;;19.63;63.72
79791;BME280;69278;52.220;5.172;2023-09-19T11:46:27;100770.34;;;19.83;64.31
79791;BME280;69278;52.220;5.172;2023-09-19T11:48:54;100787.84;;;19.93;64.22
79791;BME280;69278;52.220;5.172;2023-09-19T11:51:24;100775.25;;;19.86;62.24
79791;BME280;69278;52.220;5.172;2023-09-19T11:53:55;100748.66;;;19.72;62.33
79791;BME280;69278;52.220;5.172;2023-09-19T11:56:24;100760.69;;;19.89;62.89
79791;BME280;69278;52.220;5.172;2023-09-19T11:58:54;100786.63;;;19.95;63.32
79791;BME280;69278;52.220;5.172;2023-09-19T12:01:32;100780.66;;;19.93;63.40
79791;BME280;69278;52.220;5.172;2023-09-19T12:04:01;100773.88;;;19.91;62.91
79791;BME280;69278;52.220;5.172;2023-09-19T12:06:30;100783.34;;;19.93;63.31
79791;BME280;69278;52.220;5.172;2023-09-19T12:08:59;100794.03;;;19.93;63.64
79791;BME280;69278;52.220;5.172;2023-09-19T12:11:30;100782.47;;;19.86;63.29
79791;BME280;69278;52.220;5.172;2023-09-19T12:14:01;100778.28;;;19.77;63.00
79791;BME280;69278;52.220;5.172;2023-09-19T12:16:28;100782.41;;;19.73;63.55
79791;BME280;69278;52.220;5.172;2023-09-19T12:18:57;100788.13;;;19.70;63.93
79791;BME280;69278;52.220;5.172;2023-09-19T12:26:39;100773.84;;;19.50;63.99
79791;BME280;69278;52.220;5.172;2023-09-19T12:29:20;100792.13;;;19.53;64.64
79791;BME280;69278;52.220;5.172;2023-09-19T12:31:58;100781.88;;;19.56;64.31
79791;BME280;69278;52.220;5.172;2023-09-19T12:34:32;100784.34;;;19.58;64.03
79791;BME280;69278;52.220;5.172;2023-09-19T12:37:09;100792.75;;;19.55;64.01
79791;BME280;69278;52.220;5.172;2023-09-19T12:39:45;100787.00;;;19.51;64.14
79791;BME280;69278;52.220;5.172;2023-09-19T12:42:20;100773.44;;;19.53;64.21
79791;BME280;69278;52.220;5.172;2023-09-19T12:44:49;100762.75;;;19.53;64.17
79791;BME280;69278;52.220;5.172;2023-09-19T12:47:18;100780.31;;;19.68;64.26
79791;BME280;69278;52.220;5.172;2023-09-19T12:50:13;100777.81;;;19.67;64.30
79791;BME280;69278;52.220;5.172;2023-09-19T12:52:52;100765.84;;;19.56;64.86
79791;BME280;69278;52.220;5.172;2023-09-19T12:55:24;100777.81;;;19.67;65.06
79791;BME280;69278;52.220;5.172;2023-09-19T12:58:14;100777.03;;;19.66;64.76
79791;BME280;69278;52.220;5.172;2023-09-19T13:00:43;100783.59;;;19.64;64.24
79791;BME280;69278;52.220;5.172;2023-09-19T13:05:56;100762.47;;;19.41;64.80
79791;BME280;69278;52.220;5.172;2023-09-19T13:08:30;100769.38;;;19.57;64.94
79791;BME280;69278;52.220;5.172;2023-09-19T13:11:12;100788.84;;;19.51;65.13
79791;BME280;69278;52.220;5.172;2023-09-19T13:13:51;100784.34;;;19.58;65.64
79791;BME280;69278;52.220;5.172;2023-09-19T13:16:21;100782.75;;;19.63;65.10
79791;BME280;69278;52.220;5.172;2023-09-19T13:18:53;100782.78;;;19.70;65.01
79791;BME280;69278;52.220;5.172;2023-09-19T13:21:33;100762.03;;;19.72;65.05
79791;BME280;69278;52.220;5.172;2023-09-19T13:24:24;100733.97;;;19.55;65.11
79791;BME280;69278;52.220;5.172;2023-09-19T13:26:54;100774.00;;;19.76;64.81
79791;BME280;69278;52.220;5.172;2023-09-19T13:29:21;100775.63;;;19.77;65.14
79791;BME280;69278;52.220;5.172;2023-09-19T13:31:51;100780.34;;;19.75;65.68
79791;BME280;69278;52.220;5.172;2023-09-19T13:34:22;100775.75;;;19.62;66.08
79791;BME280;69278;52.220;5.172;2023-09-19T13:36:49;100761.72;;;19.54;66.52
79791;BME280;69278;52.220;5.172;2023-09-19T13:39:16;100787.63;;;19.53;66.79
79791;BME280;69278;52.220;5.172;2023-09-19T13:41:47;100787.59;;;19.47;67.09
79791;BME280;69278;52.220;5.172;2023-09-19T13:44:14;100779.31;;;19.42;67.50
79791;BME280;69278;52.220;5.172;2023-09-19T13:46:41;100745.44;;;19.21;67.26
79791;BME280;69278;52.220;5.172;2023-09-19T13:49:12;100779.09;;;19.37;67.29
79791;BME280;69278;52.220;5.172;2023-09-19T13:51:39;100785.16;;;19.31;67.88
79791;BME280;69278;52.220;5.172;2023-09-19T13:54:09;100767.25;;;19.25;68.20
79791;BME280;69278;52.220;5.172;2023-09-19T13:56:38;100777.34;;;19.29;67.90